sensor_id;sensor_type;location;lat;lon;timestamp;P1;durP1;ratioP1;P2;durP2;ratioP2
38034;SDS011;23841;48.524;1.342;2023-06-26T00:02:03;4.72;;;2.72;;
38034;SDS011;23841;48.524;1.342;2023-06-26T00:04:29;4.20;;;2.70;;
38034;SDS011;23841;48.524;1.342;2023-06-26T00:06:54;5.05;;;3.28;;
38034;SDS011;23841;48.524;1.342;2023-06-26T00:09:20;4.03;;;2.95;;
38034;SDS011;23841;48.524;1.342;2023-06-26T00:11:45;5.38;;;2.88;;
38034;SDS011;23841;48.524;1.342;2023-06-26T00:14:10;5.35;;;2.95;;
38034;SDS011;23841;48.524;1.342;2023-06-26T00:16:36;3.85;;;2.70;;
38034;SDS011;23841;48.524;1.342;2023-06-26T00:19:01;4.03;;;2.58;;
38034;SDS011;23841;48.524;1.342;2023-06-26T00:21:27;5.15;;;2.72;;
38034;SDS011;23841;48.524;1.342;2023-06-26T00:23:52;4.45;;;2.58;;
38034;SDS011;23841;48.524;1.342;2023-06-26T00:26:18;5.38;;;2.28;;
38034;SDS011;23841;48.524;1.342;2023-06-26T00:28:43;3.95;;;2.17;;
38034;SDS011;23841;48.524;1.342;2023-06-26T00:31:09;3.63;;;2.25;;
38034;SDS011;23841;48.524;1.342;2023-06-26T00:33:34;4.28;;;2.30;;
38034;SDS011;23841;48.524;1.342;2023-06-26T00:36:00;7.57;;;2.53;;
38034;SDS011;23841;48.524;1.342;2023-06-26T00:38:26;4.65;;;2.10;;
38034;SDS011;23841;48.524;1.342;2023-06-26T00:40:52;4.47;;;2.13;;
38034;SDS011;23841;48.524;1.342;2023-06-26T00:43:19;4.32;;;2.22;;
38034;SDS011;23841;48.524;1.342;2023-06-26T00:45:45;3.72;;;2.03;;
38034;SDS011;23841;48.524;1.342;2023-06-26T00:48:10;5.25;;;2.47;;
38034;SDS011;23841;48.524;1.342;2023-06-26T00:50:40;3.50;;;1.73;;
38034;SDS011;23841;48.524;1.342;2023-06-26T00:53:07;4.72;;;1.90;;
38034;SDS011;23841;48.524;1.342;2023-06-26T00:55:36;3.22;;;2.17;;
38034;SDS011;23841;48.524;1.342;2023-06-26T00:58:02;4.95;;;2.22;;
38034;SDS011;23841;48.524;1.342;2023-06-26T01:00:27;3.65;;;1.90;;
38034;SDS011;23841;48.524;1.342;2023-06-26T01:02:54;5.97;;;2.20;;
38034;SDS011;23841;48.524;1.342;2023-06-26T01:05:24;3.67;;;1.98;;
38034;SDS011;23841;48.524;1.342;2023-06-26T01:07:50;3.60;;;1.80;;
38034;SDS011;23841;48.524;1.342;2023-06-26T01:10:16;3.90;;;2.00;;
38034;SDS011;23841;48.524;1.342;2023-06-26T01:12:42;5.15;;;2.00;;
38034;SDS011;23841;48.524;1.342;2023-06-26T01:15:08;5.35;;;1.83;;
38034;SDS011;23841;48.524;1.342;2023-06-26T01:17:36;3.78;;;2.00;;
38034;SDS011;23841;48.524;1.342;2023-06-26T01:20:03;3.15;;;1.55;;
38034;SDS011;23841;48.524;1.342;2023-06-26T01:22:42;4.00;;;1.70;;
38034;SDS011;23841;48.524;1.342;2023-06-26T01:27:54;5.22;;;2.05;;
38034;SDS011;23841;48.524;1.342;2023-06-26T01:30:21;3.53;;;1.35;;
38034;SDS011;23841;48.524;1.342;2023-06-26T01:32:47;3.33;;;1.60;;
38034;SDS011;23841;48.524;1.342;2023-06-26T01:35:14;4.40;;;2.00;;
38034;SDS011;23841;48.524;1.342;2023-06-26T01:37:40;3.97;;;2.03;;
38034;SDS011;23841;48.524;1.342;2023-06-26T01:40:06;4.05;;;1.42;;
38034;SDS011;23841;48.524;1.342;2023-06-26T01:42:35;3.00;;;1.50;;
38034;SDS011;23841;48.524;1.342;2023-06-26T01:45:02;4.60;;;1.38;;
38034;SDS011;23841;48.524;1.342;2023-06-26T01:47:35;5.03;;;1.50;;
38034;SDS011;23841;48.524;1.342;2023-06-26T01:50:06;3.55;;;1.50;;
38034;SDS011;23841;48.524;1.342;2023-06-26T01:58:17;3.67;;;1.58;;
38034;SDS011;23841;48.524;1.342;2023-06-26T02:00:48;3.22;;;1.55;;
38034;SDS011;23841;48.524;1.342;2023-06-26T02:03:14;5.22;;;1.40;;
38034;SDS011;23841;48.524;1.342;2023-06-26T02:05:40;3.42;;;1.55;;
38034;SDS011;23841;48.524;1.342;2023-06-26T02:08:08;3.38;;;1.33;;
38034;SDS011;23841;48.524;1.342;2023-06-26T02:10:33;6.00;;;1.83;;
38034;SDS011;23841;48.524;1.342;2023-06-26T02:12:59;3.47;;;1.40;;
38034;SDS011;23841;48.524;1.342;2023-06-26T02:15:25;3.33;;;1.23;;
38034;SDS011;23841;48.524;1.342;2023-06-26T02:17:50;4.43;;;1.38;;
38034;SDS011;23841;48.524;1.342;2023-06-26T02:20:16;2.95;;;1.30;;
38034;SDS011;23841;48.524;1.342;2023-06-26T02:22:41;3.33;;;1.17;;
38034;SDS011;23841;48.524;1.342;2023-06-26T02:25:07;4.32;;;1.58;;
38034;SDS011;23841;48.524;1.342;2023-06-26T02:27:34;2.83;;;1.20;;
38034;SDS011;23841;48.524;1.342;2023-06-26T02:29:59;3.35;;;1.30;;
38034;SDS011;23841;48.524;1.342;2023-06-26T02:32:25;3.25;;;1.27;;
38034;SDS011;23841;48.524;1.342;2023-06-26T02:34:50;5.03;;;1.45;;
38034;SDS011;23841;48.524;1.342;2023-06-26T02:37:19;2.78;;;1.30;;
38034;SDS011;23841;48.524;1.342;2023-06-26T02:39:44;3.85;;;1.30;;
38034;SDS011;23841;48.524;1.342;2023-06-26T02:42:10;3.90;;;1.48;;
38034;SDS011;23841;48.524;1.342;2023-06-26T02:44:35;8.38;;;1.77;;
38034;SDS011;23841;48.524;1.342;2023-06-26T02:47:01;4.25;;;1.40;;
38034;SDS011;23841;48.524;1.342;2023-06-26T02:49:26;4.80;;;1.77;;
38034;SDS011;23841;48.524;1.342;2023-06-26T02:51:51;3.72;;;1.30;;
38034;SDS011;23841;48.524;1.342;2023-06-26T02:54:17;4.28;;;1.50;;
38034;SDS011;23841;48.524;1.342;2023-06-26T02:56:42;3.30;;;1.48;;
38034;SDS011;23841;48.524;1.342;2023-06-26T02:59:08;5.10;;;1.30;;
38034;SDS011;23841;48.524;1.342;2023-06-26T03:01:33;3.58;;;1.40;;
38034;SDS011;23841;48.524;1.342;2023-06-26T03:03:59;3.47;;;1.20;;
38034;SDS011;23841;48.524;1.342;2023-06-26T03:06:26;3.47;;;1.25;;
38034;SDS011;23841;48.524;1.342;2023-06-26T03:08:53;3.33;;;1.40;;
38034;SDS011;23841;48.524;1.342;2023-06-26T03:11:19;6.22;;;1.80;;
38034;SDS011;23841;48.524;1.342;2023-06-26T03:13:44;4.35;;;1.48;;
38034;SDS011;23841;48.524;1.342;2023-06-26T03:16:10;5.82;;;2.17;;
38034;SDS011;23841;48.524;1.342;2023-06-26T03:18:35;4.15;;;1.40;;
38034;SDS011;23841;48.524;1.342;2023-06-26T03:21:01;3.15;;;1.17;;
38034;SDS011;23841;48.524;1.342;2023-06-26T03:23:26;4.63;;;1.35;;
38034;SDS011;23841;48.524;1.342;2023-06-26T03:25:52;3.92;;;1.70;;
38034;SDS011;23841;48.524;1.342;2023-06-26T03:28:17;3.95;;;1.38;;
38034;SDS011;23841;48.524;1.342;2023-06-26T03:30:43;3.67;;;1.38;;
38034;SDS011;23841;48.524;1.342;2023-06-26T03:33:08;5.13;;;1.73;;
38034;SDS011;23841;48.524;1.342;2023-06-26T03:35:34;4.25;;;1.42;;
38034;SDS011;23841;48.524;1.342;2023-06-26T03:38:00;4.18;;;1.60;;
38034;SDS011;23841;48.524;1.342;2023-06-26T03:40:26;4.40;;;1.17;;
38034;SDS011;23841;48.524;1.342;2023-06-26T03:42:52;3.30;;;1.38;;
38034;SDS011;23841;48.524;1.342;2023-06-26T03:45:17;3.63;;;1.30;;
38034;SDS011;23841;48.524;1.342;2023-06-26T03:47:44;4.70;;;1.48;;
38034;SDS011;23841;48.524;1.342;2023-06-26T03:50:12;4.47;;;1.45;;
38034;SDS011;23841;48.524;1.342;2023-06-26T03:52:37;5.50;;;1.60;;
38034;SDS011;23841;48.524;1.342;2023-06-26T03:55:03;3.08;;;1.30;;
38034;SDS011;23841;48.524;1.342;2023-06-26T03:57:29;3.20;;;1.38;;
38034;SDS011;23841;48.524;1.342;2023-06-26T03:59:54;3.45;;;1.23;;
38034;SDS011;23841;48.524;1.342;2023-06-26T04:02:19;3.58;;;1.10;;
38034;SDS011;23841;48.524;1.342;2023-06-26T04:04:45;4.53;;;1.27;;
38034;SDS011;23841;48.524;1.342;2023-06-26T04:07:10;3.97;;;1.35;;
38034;SDS011;23841;48.524;1.342;2023-06-26T04:09:35;3.35;;;1.10;;
38034;SDS011;23841;48.524;1.342;2023-06-26T04:12:02;3.58;;;1.20;;
38034;SDS011;23841;48.524;1.342;2023-06-26T04:14:28;2.13;;;0.88;;
38034;SDS011;23841;48.524;1.342;2023-06-26T04:16:53;2.55;;;1.38;;
38034;SDS011;23841;48.524;1.342;2023-06-26T04:19:19;3.80;;;1.30;;
38034;SDS011;23841;48.524;1.342;2023-06-26T04:21:45;4.43;;;1.40;;
38034;SDS011;23841;48.524;1.342;2023-06-26T04:24:10;3.28;;;1.20;;
38034;SDS011;23841;48.524;1.342;2023-06-26T04:26:36;4.88;;;1.67;;
38034;SDS011;23841;48.524;1.342;2023-06-26T04:29:02;2.42;;;1.15;;
38034;SDS011;23841;48.524;1.342;2023-06-26T04:31:28;3.30;;;1.17;;
38034;SDS011;23841;48.524;1.342;2023-06-26T04:33:53;5.05;;;1.40;;
38034;SDS011;23841;48.524;1.342;2023-06-26T04:36:20;4.32;;;1.42;;
38034;SDS011;23841;48.524;1.342;2023-06-26T04:38:46;4.60;;;1.75;;
38034;SDS011;23841;48.524;1.342;2023-06-26T04:41:13;5.38;;;1.10;;
38034;SDS011;23841;48.524;1.342;2023-06-26T04:43:39;5.50;;;1.63;;
38034;SDS011;23841;48.524;1.342;2023-06-26T04:46:04;5.00;;;1.27;;
38034;SDS011;23841;48.524;1.342;2023-06-26T04:48:31;4.05;;;1.15;;
38034;SDS011;23841;48.524;1.342;2023-06-26T04:50:57;4.57;;;1.48;;
38034;SDS011;23841;48.524;1.342;2023-06-26T04:53:23;4.15;;;1.13;;
38034;SDS011;23841;48.524;1.342;2023-06-26T04:55:49;6.93;;;1.83;;
38034;SDS011;23841;48.524;1.342;2023-06-26T04:58:18;3.03;;;1.27;;
38034;SDS011;23841;48.524;1.342;2023-06-26T05:00:44;5.20;;;1.50;;
38034;SDS011;23841;48.524;1.342;2023-06-26T05:03:14;4.18;;;1.13;;
38034;SDS011;23841;48.524;1.342;2023-06-26T05:05:42;4.32;;;1.27;;
38034;SDS011;23841;48.524;1.342;2023-06-26T05:08:17;3.97;;;1.52;;
38034;SDS011;23841;48.524;1.342;2023-06-26T05:10:44;4.90;;;1.30;;
38034;SDS011;23841;48.524;1.342;2023-06-26T05:13:10;5.40;;;1.45;;
38034;SDS011;23841;48.524;1.342;2023-06-26T05:15:36;4.35;;;1.42;;
38034;SDS011;23841;48.524;1.342;2023-06-26T05:18:01;3.13;;;1.25;;
38034;SDS011;23841;48.524;1.342;2023-06-26T05:20:27;4.22;;;1.10;;
38034;SDS011;23841;48.524;1.342;2023-06-26T05:22:52;4.05;;;1.30;;
38034;SDS011;23841;48.524;1.342;2023-06-26T05:25:18;4.43;;;1.33;;
38034;SDS011;23841;48.524;1.342;2023-06-26T05:27:46;3.58;;;1.20;;
38034;SDS011;23841;48.524;1.342;2023-06-26T05:30:14;3.65;;;1.23;;
38034;SDS011;23841;48.524;1.342;2023-06-26T05:32:40;3.28;;;1.30;;
38034;SDS011;23841;48.524;1.342;2023-06-26T05:35:06;5.65;;;1.63;;
38034;SDS011;23841;48.524;1.342;2023-06-26T05:37:32;4.80;;;1.48;;
38034;SDS011;23841;48.524;1.342;2023-06-26T05:39:59;3.28;;;1.50;;
38034;SDS011;23841;48.524;1.342;2023-06-26T05:42:26;3.90;;;1.58;;
38034;SDS011;23841;48.524;1.342;2023-06-26T05:44:53;3.90;;;1.48;;
38034;SDS011;23841;48.524;1.342;2023-06-26T05:47:18;3.20;;;1.55;;
38034;SDS011;23841;48.524;1.342;2023-06-26T05:49:44;7.68;;;2.20;;
38034;SDS011;23841;48.524;1.342;2023-06-26T05:52:09;3.97;;;1.50;;
38034;SDS011;23841;48.524;1.342;2023-06-26T05:54:35;3.15;;;1.40;;
38034;SDS011;23841;48.524;1.342;2023-06-26T05:57:01;6.93;;;2.15;;
38034;SDS011;23841;48.524;1.342;2023-06-26T05:59:28;6.10;;;2.00;;
38034;SDS011;23841;48.524;1.342;2023-06-26T06:01:56;5.75;;;1.85;;
38034;SDS011;23841;48.524;1.342;2023-06-26T06:04:22;5.00;;;1.90;;
38034;SDS011;23841;48.524;1.342;2023-06-26T06:06:47;3.03;;;1.45;;
38034;SDS011;23841;48.524;1.342;2023-06-26T06:09:13;4.85;;;1.63;;
38034;SDS011;23841;48.524;1.342;2023-06-26T06:11:38;4.65;;;1.65;;
38034;SDS011;23841;48.524;1.342;2023-06-26T06:14:03;3.75;;;1.80;;
38034;SDS011;23841;48.524;1.342;2023-06-26T06:16:29;4.40;;;1.88;;
38034;SDS011;23841;48.524;1.342;2023-06-26T06:18:55;6.53;;;1.88;;
38034;SDS011;23841;48.524;1.342;2023-06-26T06:21:20;3.85;;;1.60;;
38034;SDS011;23841;48.524;1.342;2023-06-26T06:23:46;4.97;;;1.58;;
38034;SDS011;23841;48.524;1.342;2023-06-26T06:26:11;4.70;;;1.60;;
38034;SDS011;23841;48.524;1.342;2023-06-26T06:28:38;3.90;;;1.80;;
38034;SDS011;23841;48.524;1.342;2023-06-26T06:31:04;3.90;;;1.70;;
38034;SDS011;23841;48.524;1.342;2023-06-26T06:33:30;4.18;;;1.50;;
38034;SDS011;23841;48.524;1.342;2023-06-26T06:35:56;4.57;;;1.63;;
38034;SDS011;23841;48.524;1.342;2023-06-26T06:38:22;4.72;;;1.70;;
38034;SDS011;23841;48.524;1.342;2023-06-26T06:40:47;5.75;;;2.28;;
38034;SDS011;23841;48.524;1.342;2023-06-26T06:43:13;4.55;;;1.77;;
38034;SDS011;23841;48.524;1.342;2023-06-26T06:45:38;4.78;;;1.70;;
38034;SDS011;23841;48.524;1.342;2023-06-26T06:48:04;4.85;;;1.63;;
38034;SDS011;23841;48.524;1.342;2023-06-26T06:50:30;5.63;;;2.00;;
38034;SDS011;23841;48.524;1.342;2023-06-26T06:52:55;5.00;;;1.85;;
38034;SDS011;23841;48.524;1.342;2023-06-26T06:55:21;4.18;;;1.40;;
38034;SDS011;23841;48.524;1.342;2023-06-26T06:57:47;5.75;;;1.73;;
38034;SDS011;23841;48.524;1.342;2023-06-26T07:00:12;5.25;;;1.65;;
38034;SDS011;23841;48.524;1.342;2023-06-26T07:02:42;3.50;;;1.33;;
38034;SDS011;23841;48.524;1.342;2023-06-26T07:05:09;4.10;;;1.60;;
38034;SDS011;23841;48.524;1.342;2023-06-26T07:07:35;3.45;;;1.30;;
38034;SDS011;23841;48.524;1.342;2023-06-26T07:10:07;5.45;;;1.60;;
38034;SDS011;23841;48.524;1.342;2023-06-26T07:12:35;5.50;;;1.73;;
38034;SDS011;23841;48.524;1.342;2023-06-26T07:15:01;6.40;;;1.60;;
38034;SDS011;23841;48.524;1.342;2023-06-26T07:17:29;4.50;;;1.52;;
38034;SDS011;23841;48.524;1.342;2023-06-26T07:19:55;5.10;;;1.58;;
38034;SDS011;23841;48.524;1.342;2023-06-26T07:22:20;5.22;;;1.63;;
38034;SDS011;23841;48.524;1.342;2023-06-26T07:24:46;4.00;;;1.48;;
38034;SDS011;23841;48.524;1.342;2023-06-26T07:27:13;4.10;;;1.70;;
38034;SDS011;23841;48.524;1.342;2023-06-26T07:29:39;3.30;;;1.50;;
38034;SDS011;23841;48.524;1.342;2023-06-26T07:32:05;4.72;;;2.05;;
38034;SDS011;23841;48.524;1.342;2023-06-26T07:34:30;3.97;;;1.40;;
38034;SDS011;23841;48.524;1.342;2023-06-26T07:36:56;6.57;;;1.77;;
38034;SDS011;23841;48.524;1.342;2023-06-26T07:39:21;5.47;;;1.75;;
38034;SDS011;23841;48.524;1.342;2023-06-26T07:41:47;4.75;;;1.60;;
38034;SDS011;23841;48.524;1.342;2023-06-26T07:44:12;3.75;;;1.70;;
38034;SDS011;23841;48.524;1.342;2023-06-26T07:46:39;5.43;;;1.40;;
38034;SDS011;23841;48.524;1.342;2023-06-26T07:49:04;4.97;;;1.70;;
38034;SDS011;23841;48.524;1.342;2023-06-26T07:51:30;7.25;;;2.22;;
38034;SDS011;23841;48.524;1.342;2023-06-26T07:53:55;5.88;;;1.77;;
38034;SDS011;23841;48.524;1.342;2023-06-26T07:56:20;8.38;;;2.20;;
38034;SDS011;23841;48.524;1.342;2023-06-26T07:58:46;7.20;;;2.10;;
38034;SDS011;23841;48.524;1.342;2023-06-26T08:01:11;8.00;;;2.03;;
38034;SDS011;23841;48.524;1.342;2023-06-26T08:03:37;6.65;;;2.40;;
38034;SDS011;23841;48.524;1.342;2023-06-26T08:06:02;6.88;;;2.20;;
38034;SDS011;23841;48.524;1.342;2023-06-26T08:08:28;8.52;;;2.58;;
38034;SDS011;23841;48.524;1.342;2023-06-26T08:10:54;8.30;;;1.98;;
38034;SDS011;23841;48.524;1.342;2023-06-26T08:13:19;7.05;;;1.70;;
38034;SDS011;23841;48.524;1.342;2023-06-26T08:15:45;5.63;;;2.00;;
38034;SDS011;23841;48.524;1.342;2023-06-26T08:18:10;7.57;;;1.98;;
38034;SDS011;23841;48.524;1.342;2023-06-26T08:20:35;5.13;;;1.80;;
38034;SDS011;23841;48.524;1.342;2023-06-26T08:23:03;6.13;;;2.42;;
38034;SDS011;23841;48.524;1.342;2023-06-26T08:25:29;7.90;;;2.92;;
38034;SDS011;23841;48.524;1.342;2023-06-26T08:27:54;7.70;;;2.45;;
38034;SDS011;23841;48.524;1.342;2023-06-26T08:30:20;5.65;;;1.80;;
38034;SDS011;23841;48.524;1.342;2023-06-26T08:32:46;7.53;;;2.38;;
38034;SDS011;23841;48.524;1.342;2023-06-26T08:35:11;5.55;;;2.00;;
38034;SDS011;23841;48.524;1.342;2023-06-26T08:37:37;7.00;;;2.28;;
38034;SDS011;23841;48.524;1.342;2023-06-26T08:40:03;7.32;;;2.08;;
38034;SDS011;23841;48.524;1.342;2023-06-26T08:42:29;7.75;;;2.13;;
38034;SDS011;23841;48.524;1.342;2023-06-26T08:44:54;4.95;;;2.05;;
38034;SDS011;23841;48.524;1.342;2023-06-26T08:47:20;6.25;;;2.30;;
38034;SDS011;23841;48.524;1.342;2023-06-26T08:52:17;4.43;;;1.77;;
38034;SDS011;23841;48.524;1.342;2023-06-26T08:54:49;7.53;;;2.00;;
38034;SDS011;23841;48.524;1.342;2023-06-26T08:57:22;3.58;;;1.33;;
38034;SDS011;23841;48.524;1.342;2023-06-26T08:59:48;4.97;;;1.90;;
38034;SDS011;23841;48.524;1.342;2023-06-26T09:02:14;4.55;;;1.40;;
38034;SDS011;23841;48.524;1.342;2023-06-26T09:04:40;5.38;;;1.70;;
38034;SDS011;23841;48.524;1.342;2023-06-26T09:07:06;5.43;;;1.50;;
38034;SDS011;23841;48.524;1.342;2023-06-26T09:09:32;4.50;;;1.25;;
38034;SDS011;23841;48.524;1.342;2023-06-26T09:11:57;6.82;;;1.73;;
38034;SDS011;23841;48.524;1.342;2023-06-26T09:14:23;6.63;;;2.00;;
38034;SDS011;23841;48.524;1.342;2023-06-26T09:16:49;5.43;;;1.42;;
38034;SDS011;23841;48.524;1.342;2023-06-26T09:19:15;5.50;;;1.95;;
38034;SDS011;23841;48.524;1.342;2023-06-26T09:21:41;6.55;;;2.10;;
38034;SDS011;23841;48.524;1.342;2023-06-26T09:24:08;5.15;;;1.80;;
38034;SDS011;23841;48.524;1.342;2023-06-26T09:26:35;4.60;;;1.80;;
38034;SDS011;23841;48.524;1.342;2023-06-26T09:29:07;4.65;;;2.10;;
38034;SDS011;23841;48.524;1.342;2023-06-26T09:31:38;4.22;;;1.33;;
38034;SDS011;23841;48.524;1.342;2023-06-26T09:34:04;4.53;;;1.33;;
38034;SDS011;23841;48.524;1.342;2023-06-26T09:36:30;5.45;;;1.90;;
38034;SDS011;23841;48.524;1.342;2023-06-26T09:39:01;4.63;;;1.67;;
38034;SDS011;23841;48.524;1.342;2023-06-26T09:41:28;3.65;;;1.27;;
38034;SDS011;23841;48.524;1.342;2023-06-26T09:43:53;6.93;;;2.20;;
38034;SDS011;23841;48.524;1.342;2023-06-26T09:46:26;3.50;;;1.30;;
38034;SDS011;23841;48.524;1.342;2023-06-26T09:49:01;3.95;;;1.50;;
38034;SDS011;23841;48.524;1.342;2023-06-26T09:51:34;4.05;;;2.08;;
38034;SDS011;23841;48.524;1.342;2023-06-26T09:54:01;4.32;;;1.38;;
38034;SDS011;23841;48.524;1.342;2023-06-26T09:56:28;2.65;;;1.30;;
38034;SDS011;23841;48.524;1.342;2023-06-26T09:58:57;3.47;;;1.60;;
38034;SDS011;23841;48.524;1.342;2023-06-26T10:01:26;5.15;;;1.60;;
38034;SDS011;23841;48.524;1.342;2023-06-26T10:03:52;3.85;;;1.40;;
38034;SDS011;23841;48.524;1.342;2023-06-26T10:06:19;4.95;;;1.30;;
38034;SDS011;23841;48.524;1.342;2023-06-26T10:09:05;2.47;;;1.10;;
38034;SDS011;23841;48.524;1.342;2023-06-26T10:11:52;3.63;;;1.42;;
38034;SDS011;23841;48.524;1.342;2023-06-26T10:14:21;4.00;;;1.38;;
38034;SDS011;23841;48.524;1.342;2023-06-26T10:16:51;4.10;;;1.55;;
38034;SDS011;23841;48.524;1.342;2023-06-26T10:19:18;3.70;;;1.40;;
38034;SDS011;23841;48.524;1.342;2023-06-26T10:21:53;4.25;;;1.30;;
38034;SDS011;23841;48.524;1.342;2023-06-26T10:24:19;2.83;;;1.40;;
38034;SDS011;23841;48.524;1.342;2023-06-26T10:26:49;2.83;;;1.27;;
38034;SDS011;23841;48.524;1.342;2023-06-26T10:29:17;5.05;;;1.40;;
38034;SDS011;23841;48.524;1.342;2023-06-26T10:31:47;4.82;;;1.60;;
38034;SDS011;23841;48.524;1.342;2023-06-26T10:34:17;4.07;;;1.60;;
38034;SDS011;23841;48.524;1.342;2023-06-26T10:36:44;5.32;;;1.40;;
38034;SDS011;23841;48.524;1.342;2023-06-26T10:39:09;3.35;;;1.42;;
38034;SDS011;23841;48.524;1.342;2023-06-26T10:41:38;4.93;;;1.27;;
38034;SDS011;23841;48.524;1.342;2023-06-26T10:44:16;4.10;;;1.20;;
38034;SDS011;23841;48.524;1.342;2023-06-26T10:46:48;3.25;;;1.20;;
38034;SDS011;23841;48.524;1.342;2023-06-26T10:49:14;4.47;;;1.70;;
38034;SDS011;23841;48.524;1.342;2023-06-26T10:51:45;4.72;;;1.60;;
38034;SDS011;23841;48.524;1.342;2023-06-26T10:54:14;4.68;;;1.38;;
38034;SDS011;23841;48.524;1.342;2023-06-26T10:56:48;4.70;;;1.50;;
38034;SDS011;23841;48.524;1.342;2023-06-26T10:59:19;5.03;;;1.45;;
38034;SDS011;23841;48.524;1.342;2023-06-26T11:01:46;3.60;;;1.30;;
38034;SDS011;23841;48.524;1.342;2023-06-26T11:04:22;3.45;;;1.58;;
38034;SDS011;23841;48.524;1.342;2023-06-26T11:07:14;4.13;;;1.48;;
38034;SDS011;23841;48.524;1.342;2023-06-26T11:12:44;4.43;;;1.65;;
38034;SDS011;23841;48.524;1.342;2023-06-26T11:15:16;5.35;;;1.45;;
38034;SDS011;23841;48.524;1.342;2023-06-26T11:17:42;3.60;;;1.05;;
38034;SDS011;23841;48.524;1.342;2023-06-26T11:20:12;3.13;;;1.25;;
38034;SDS011;23841;48.524;1.342;2023-06-26T11:22:41;3.30;;;1.23;;
38034;SDS011;23841;48.524;1.342;2023-06-26T11:25:08;4.15;;;1.20;;
38034;SDS011;23841;48.524;1.342;2023-06-26T11:27:38;4.80;;;1.80;;
38034;SDS011;23841;48.524;1.342;2023-06-26T11:30:11;2.83;;;1.08;;
38034;SDS011;23841;48.524;1.342;2023-06-26T11:32:48;4.05;;;1.17;;
38034;SDS011;23841;48.524;1.342;2023-06-26T11:35:13;2.70;;;1.20;;
38034;SDS011;23841;48.524;1.342;2023-06-26T11:37:47;3.08;;;1.48;;
38034;SDS011;23841;48.524;1.342;2023-06-26T11:40:16;2.97;;;1.10;;
38034;SDS011;23841;48.524;1.342;2023-06-26T11:42:42;4.00;;;1.05;;
38034;SDS011;23841;48.524;1.342;2023-06-26T11:45:09;4.13;;;1.27;;
38034;SDS011;23841;48.524;1.342;2023-06-26T11:47:35;2.97;;;1.17;;
38034;SDS011;23841;48.524;1.342;2023-06-26T11:50:04;4.40;;;1.70;;
38034;SDS011;23841;48.524;1.342;2023-06-26T11:52:32;2.67;;;1.33;;
38034;SDS011;23841;48.524;1.342;2023-06-26T11:54:58;4.03;;;1.60;;
38034;SDS011;23841;48.524;1.342;2023-06-26T11:57:25;3.03;;;1.30;;
38034;SDS011;23841;48.524;1.342;2023-06-26T11:59:51;3.60;;;1.00;;
38034;SDS011;23841;48.524;1.342;2023-06-26T12:02:17;3.22;;;1.17;;
38034;SDS011;23841;48.524;1.342;2023-06-26T12:04:43;3.03;;;1.25;;
38034;SDS011;23841;48.524;1.342;2023-06-26T12:07:09;2.80;;;1.02;;
38034;SDS011;23841;48.524;1.342;2023-06-26T12:09:42;6.90;;;1.50;;
38034;SDS011;23841;48.524;1.342;2023-06-26T12:12:10;2.97;;;1.05;;
38034;SDS011;23841;48.524;1.342;2023-06-26T12:14:37;4.53;;;1.10;;
38034;SDS011;23841;48.524;1.342;2023-06-26T12:17:12;2.47;;;1.10;;
38034;SDS011;23841;48.524;1.342;2023-06-26T12:19:47;2.75;;;1.17;;
38034;SDS011;23841;48.524;1.342;2023-06-26T12:22:13;2.05;;;1.20;;
38034;SDS011;23841;48.524;1.342;2023-06-26T12:24:39;3.15;;;1.10;;
38034;SDS011;23841;48.524;1.342;2023-06-26T12:27:08;4.32;;;1.27;;
38034;SDS011;23841;48.524;1.342;2023-06-26T12:29:35;3.08;;;1.23;;
38034;SDS011;23841;48.524;1.342;2023-06-26T12:32:01;2.40;;;1.20;;
38034;SDS011;23841;48.524;1.342;2023-06-26T12:34:28;3.38;;;1.55;;
38034;SDS011;23841;48.524;1.342;2023-06-26T12:36:59;3.45;;;1.27;;
38034;SDS011;23841;48.524;1.342;2023-06-26T12:39:49;2.17;;;1.10;;
38034;SDS011;23841;48.524;1.342;2023-06-26T12:42:19;2.90;;;1.00;;
38034;SDS011;23841;48.524;1.342;2023-06-26T12:44:46;1.92;;;1.13;;
38034;SDS011;23841;48.524;1.342;2023-06-26T12:47:13;3.88;;;1.20;;
38034;SDS011;23841;48.524;1.342;2023-06-26T12:49:40;2.30;;;1.00;;
38034;SDS011;23841;48.524;1.342;2023-06-26T12:52:11;2.75;;;1.23;;
38034;SDS011;23841;48.524;1.342;2023-06-26T12:54:38;3.28;;;1.10;;
38034;SDS011;23841;48.524;1.342;2023-06-26T12:57:05;4.20;;;1.30;;
38034;SDS011;23841;48.524;1.342;2023-06-26T12:59:32;4.03;;;1.35;;
38034;SDS011;23841;48.524;1.342;2023-06-26T13:01:58;1.63;;;0.77;;
38034;SDS011;23841;48.524;1.342;2023-06-26T13:04:25;3.83;;;1.20;;
38034;SDS011;23841;48.524;1.342;2023-06-26T13:06:52;4.15;;;1.25;;
38034;SDS011;23841;48.524;1.342;2023-06-26T13:09:20;3.50;;;1.30;;
38034;SDS011;23841;48.524;1.342;2023-06-26T13:11:47;4.78;;;1.38;;
38034;SDS011;23841;48.524;1.342;2023-06-26T13:14:12;4.50;;;1.30;;
38034;SDS011;23841;48.524;1.342;2023-06-26T13:16:38;4.55;;;1.13;;
38034;SDS011;23841;48.524;1.342;2023-06-26T13:19:03;3.33;;;1.15;;
38034;SDS011;23841;48.524;1.342;2023-06-26T13:21:29;3.83;;;1.50;;
38034;SDS011;23841;48.524;1.342;2023-06-26T13:23:55;5.70;;;1.25;;
38034;SDS011;23841;48.524;1.342;2023-06-26T13:26:21;4.00;;;1.20;;
38034;SDS011;23841;48.524;1.342;2023-06-26T13:28:47;6.55;;;1.42;;
38034;SDS011;23841;48.524;1.342;2023-06-26T13:31:13;3.83;;;1.33;;
38034;SDS011;23841;48.524;1.342;2023-06-26T13:33:39;3.45;;;1.10;;
38034;SDS011;23841;48.524;1.342;2023-06-26T13:36:04;2.35;;;0.90;;
38034;SDS011;23841;48.524;1.342;2023-06-26T13:38:32;5.53;;;1.35;;
38034;SDS011;23841;48.524;1.342;2023-06-26T13:40:58;2.95;;;1.20;;
38034;SDS011;23841;48.524;1.342;2023-06-26T13:43:26;4.60;;;1.17;;
38034;SDS011;23841;48.524;1.342;2023-06-26T13:45:52;3.55;;;1.20;;
38034;SDS011;23841;48.524;1.342;2023-06-26T13:48:18;4.40;;;1.58;;
38034;SDS011;23841;48.524;1.342;2023-06-26T13:50:44;3.45;;;1.58;;
38034;SDS011;23841;48.524;1.342;2023-06-26T13:53:12;2.72;;;1.15;;
38034;SDS011;23841;48.524;1.342;2023-06-26T13:55:39;3.72;;;1.30;;
38034;SDS011;23841;48.524;1.342;2023-06-26T13:58:05;3.22;;;1.40;;
38034;SDS011;23841;48.524;1.342;2023-06-26T14:00:31;4.07;;;1.30;;
38034;SDS011;23841;48.524;1.342;2023-06-26T14:02:58;4.28;;;1.27;;
38034;SDS011;23841;48.524;1.342;2023-06-26T14:05:34;2.85;;;1.15;;
38034;SDS011;23841;48.524;1.342;2023-06-26T14:08:01;2.67;;;1.10;;
38034;SDS011;23841;48.524;1.342;2023-06-26T14:10:29;5.72;;;1.15;;
38034;SDS011;23841;48.524;1.342;2023-06-26T14:12:55;2.30;;;1.13;;
38034;SDS011;23841;48.524;1.342;2023-06-26T14:15:20;1.63;;;0.95;;
38034;SDS011;23841;48.524;1.342;2023-06-26T14:17:46;1.98;;;1.00;;
38034;SDS011;23841;48.524;1.342;2023-06-26T14:20:15;3.88;;;1.40;;
38034;SDS011;23841;48.524;1.342;2023-06-26T14:22:41;3.13;;;1.20;;
38034;SDS011;23841;48.524;1.342;2023-06-26T14:25:09;3.08;;;1.30;;
38034;SDS011;23841;48.524;1.342;2023-06-26T14:27:35;2.42;;;1.17;;
38034;SDS011;23841;48.524;1.342;2023-06-26T14:30:05;4.45;;;1.20;;
38034;SDS011;23841;48.524;1.342;2023-06-26T14:32:32;4.20;;;1.30;;
38034;SDS011;23841;48.524;1.342;2023-06-26T14:34:58;2.70;;;1.05;;
38034;SDS011;23841;48.524;1.342;2023-06-26T14:37:23;3.83;;;1.17;;
38034;SDS011;23841;48.524;1.342;2023-06-26T14:39:50;6.10;;;1.40;;
38034;SDS011;23841;48.524;1.342;2023-06-26T14:42:15;2.20;;;0.95;;
38034;SDS011;23841;48.524;1.342;2023-06-26T14:44:41;3.75;;;1.50;;
38034;SDS011;23841;48.524;1.342;2023-06-26T14:47:06;2.33;;;1.10;;
38034;SDS011;23841;48.524;1.342;2023-06-26T14:49:32;3.33;;;1.05;;
38034;SDS011;23841;48.524;1.342;2023-06-26T14:51:57;5.63;;;1.40;;
38034;SDS011;23841;48.524;1.342;2023-06-26T14:54:22;3.20;;;1.17;;
38034;SDS011;23841;48.524;1.342;2023-06-26T14:56:48;4.15;;;1.38;;
38034;SDS011;23841;48.524;1.342;2023-06-26T14:59:13;4.70;;;1.38;;
38034;SDS011;23841;48.524;1.342;2023-06-26T15:01:39;5.65;;;1.80;;